sensor_id;sensor_type;location;lat;lon;timestamp;pressure;altitude;pressure_sealevel;temperature;humidity
46690;BME280;32423;45.398;10.874;2022-08-25T00:01:19;100800.00;;;26.86;48.66
46690;BME280;32423;45.398;10.874;2022-08-25T00:04:05;100793.19;;;26.91;48.76
46690;BME280;32423;45.398;10.874;2022-08-25T00:06:50;100783.16;;;26.93;48.96
46690;BME280;32423;45.398;10.874;2022-08-25T00:09:36;100787.94;;;26.93;48.56
46690;BME280;32423;45.398;10.874;2022-08-25T00:12:21;100789.53;;;26.94;48.44
46690;BME280;32423;45.398;10.874;2022-08-25T00:15:06;100780.34;;;26.93;48.41
46690;BME280;32423;45.398;10.874;2022-08-25T00:17:53;100777.00;;;26.78;47.78
46690;BME280;32423;45.398;10.874;2022-08-25T00:20:38;100777.50;;;26.47;48.71
46690;BME280;32423;45.398;10.874;2022-08-25T00:23:22;100784.28;;;26.19;49.38
46690;BME280;32423;45.398;10.874;2022-08-25T00:26:08;100787.75;;;25.96;50.39
46690;BME280;32423;45.398;10.874;2022-08-25T00:28:52;100790.75;;;25.82;50.90
46690;BME280;32423;45.398;10.874;2022-08-25T00:31:37;100783.41;;;25.65;51.26
46690;BME280;32423;45.398;10.874;2022-08-25T00:34:24;100786.25;;;25.58;51.23
46690;BME280;32423;45.398;10.874;2022-08-25T00:37:09;100787.06;;;25.54;51.24
46690;BME280;32423;45.398;10.874;2022-08-25T00:39:54;100787.47;;;25.57;50.98
46690;BME280;32423;45.398;10.874;2022-08-25T00:42:40;100783.28;;;25.38;51.47
46690;BME280;32423;45.398;10.874;2022-08-25T00:45:25;100778.06;;;25.43;51.49
46690;BME280;32423;45.398;10.874;2022-08-25T00:48:10;100769.72;;;25.40;51.69
46690;BME280;32423;45.398;10.874;2022-08-25T00:50:55;100776.50;;;25.39;51.59
46690;BME280;32423;45.398;10.874;2022-08-25T00:53:39;100764.59;;;25.38;51.87
46690;BME280;32423;45.398;10.874;2022-08-25T00:56:24;100768.63;;;25.30;52.15
46690;BME280;32423;45.398;10.874;2022-08-25T00:59:10;100767.78;;;25.37;51.95
46690;BME280;32423;45.398;10.874;2022-08-25T01:01:56;100772.09;;;25.41;51.52
46690;BME280;32423;45.398;10.874;2022-08-25T01:04:42;100767.50;;;25.62;51.56
46690;BME280;32423;45.398;10.874;2022-08-25T01:07:27;100767.31;;;25.76;50.91
46690;BME280;32423;45.398;10.874;2022-08-25T01:10:12;100773.66;;;25.80;51.20
46690;BME280;32423;45.398;10.874;2022-08-25T01:12:59;100769.09;;;25.93;50.16
46690;BME280;32423;45.398;10.874;2022-08-25T01:15:45;100769.28;;;26.09;50.88
46690;BME280;32423;45.398;10.874;2022-08-25T01:18:41;100769.84;;;26.27;50.23
46690;BME280;32423;45.398;10.874;2022-08-25T01:21:26;100762.56;;;26.33;49.63
46690;BME280;32423;45.398;10.874;2022-08-25T01:24:15;100767.91;;;26.24;49.54
46690;BME280;32423;45.398;10.874;2022-08-25T01:27:05;100762.81;;;26.16;49.73
46690;BME280;32423;45.398;10.874;2022-08-25T01:29:50;100760.66;;;26.00;50.02
46690;BME280;32423;45.398;10.874;2022-08-25T01:32:34;100756.19;;;25.76;50.19
46690;BME280;32423;45.398;10.874;2022-08-25T01:35:19;100763.22;;;25.53;50.89
46690;BME280;32423;45.398;10.874;2022-08-25T01:38:05;100758.13;;;25.45;51.09
46690;BME280;32423;45.398;10.874;2022-08-25T01:40:49;100760.91;;;25.45;51.25
46690;BME280;32423;45.398;10.874;2022-08-25T01:43:35;100768.16;;;25.39;51.89
46690;BME280;32423;45.398;10.874;2022-08-25T01:46:39;100763.00;;;25.37;51.58
46690;BME280;32423;45.398;10.874;2022-08-25T01:49:23;100762.53;;;25.42;51.22
46690;BME280;32423;45.398;10.874;2022-08-25T01:52:14;100753.84;;;25.37;51.31
46690;BME280;32423;45.398;10.874;2022-08-25T01:54:59;100752.38;;;25.25;51.75
46690;BME280;32423;45.398;10.874;2022-08-25T01:57:44;100757.13;;;25.28;51.60
46690;BME280;32423;45.398;10.874;2022-08-25T02:00:28;100757.19;;;25.21;51.97
46690;BME280;32423;45.398;10.874;2022-08-25T02:03:13;100757.69;;;25.12;52.08
46690;BME280;32423;45.398;10.874;2022-08-25T02:05:58;100760.88;;;25.11;51.90
46690;BME280;32423;45.398;10.874;2022-08-25T02:08:44;100756.66;;;24.96;52.11
46690;BME280;32423;45.398;10.874;2022-08-25T02:11:30;100755.47;;;24.97;52.51
46690;BME280;32423;45.398;10.874;2022-08-25T02:14:15;100754.66;;;24.96;52.30
46690;BME280;32423;45.398;10.874;2022-08-25T02:17:01;100749.59;;;24.88;52.46
46690;BME280;32423;45.398;10.874;2022-08-25T02:19:46;100750.38;;;24.85;52.58
46690;BME280;32423;45.398;10.874;2022-08-25T02:22:31;100755.16;;;24.88;52.70
46690;BME280;32423;45.398;10.874;2022-08-25T02:25:16;100759.94;;;24.87;52.73
46690;BME280;32423;45.398;10.874;2022-08-25T02:28:01;100760.28;;;24.89;52.65
46690;BME280;32423;45.398;10.874;2022-08-25T02:30:46;100765.06;;;24.92;52.84
46690;BME280;32423;45.398;10.874;2022-08-25T02:33:31;100759.41;;;24.99;52.43
46690;BME280;32423;45.398;10.874;2022-08-25T02:36:16;100752.25;;;25.02;52.38
46690;BME280;32423;45.398;10.874;2022-08-25T02:39:00;100749.84;;;25.00;52.27
46690;BME280;32423;45.398;10.874;2022-08-25T02:41:45;100755.91;;;24.92;52.42
46690;BME280;32423;45.398;10.874;2022-08-25T02:44:29;100760.31;;;24.86;52.71
46690;BME280;32423;45.398;10.874;2022-08-25T02:47:15;100754.72;;;24.93;53.80
46690;BME280;32423;45.398;10.874;2022-08-25T02:49:59;100750.66;;;25.38;52.50
46690;BME280;32423;45.398;10.874;2022-08-25T02:52:44;100756.38;;;25.62;51.76
46690;BME280;32423;45.398;10.874;2022-08-25T02:55:28;100743.97;;;25.66;51.44
46690;BME280;32423;45.398;10.874;2022-08-25T02:58:14;100746.22;;;25.78;51.03
46690;BME280;32423;45.398;10.874;2022-08-25T03:00:58;100748.28;;;25.71;51.07
46690;BME280;32423;45.398;10.874;2022-08-25T03:03:43;100741.97;;;25.67;51.18
46690;BME280;32423;45.398;10.874;2022-08-25T03:06:29;100741.25;;;25.63;51.12
46690;BME280;32423;45.398;10.874;2022-08-25T03:09:14;100745.63;;;25.60;51.12
46690;BME280;32423;45.398;10.874;2022-08-25T03:11:58;100742.44;;;25.62;50.98
46690;BME280;32423;45.398;10.874;2022-08-25T03:14:43;100740.84;;;25.64;50.88
46690;BME280;32423;45.398;10.874;2022-08-25T03:17:28;100739.56;;;25.69;50.63
46690;BME280;32423;45.398;10.874;2022-08-25T03:20:12;100745.78;;;25.46;50.71
46690;BME280;32423;45.398;10.874;2022-08-25T03:22:57;100736.91;;;25.24;51.47
46690;BME280;32423;45.398;10.874;2022-08-25T03:25:41;100741.09;;;25.02;52.19
46690;BME280;32423;45.398;10.874;2022-08-25T03:28:44;100745.38;;;25.10;52.39
46690;BME280;32423;45.398;10.874;2022-08-25T03:31:29;100736.00;;;25.31;52.02
46690;BME280;32423;45.398;10.874;2022-08-25T03:34:15;100738.28;;;25.43;51.84
46690;BME280;32423;45.398;10.874;2022-08-25T03:37:00;100725.47;;;25.49;51.58
46690;BME280;32423;45.398;10.874;2022-08-25T03:39:45;100734.94;;;25.55;51.34
46690;BME280;32423;45.398;10.874;2022-08-25T03:42:30;100726.94;;;25.61;51.05
46690;BME280;32423;45.398;10.874;2022-08-25T03:45:15;100721.75;;;25.63;51.04
46690;BME280;32423;45.398;10.874;2022-08-25T03:48:00;100726.94;;;25.61;50.89
46690;BME280;32423;45.398;10.874;2022-08-25T03:50:46;100723.81;;;25.55;51.10
46690;BME280;32423;45.398;10.874;2022-08-25T03:53:31;100728.59;;;25.54;50.83
46690;BME280;32423;45.398;10.874;2022-08-25T03:56:15;100720.22;;;25.54;50.30
46690;BME280;32423;45.398;10.874;2022-08-25T03:59:00;100722.03;;;25.38;50.88
46690;BME280;32423;45.398;10.874;2022-08-25T04:01:45;100723.69;;;25.32;51.21
46690;BME280;32423;45.398;10.874;2022-08-25T04:04:30;100715.38;;;25.28;51.57
46690;BME280;32423;45.398;10.874;2022-08-25T04:07:15;100716.31;;;25.14;51.76
46690;BME280;32423;45.398;10.874;2022-08-25T04:10:00;100716.13;;;25.32;51.64
46690;BME280;32423;45.398;10.874;2022-08-25T04:12:45;100728.28;;;25.45;51.17
46690;BME280;32423;45.398;10.874;2022-08-25T04:15:32;100722.69;;;25.49;51.34
46690;BME280;32423;45.398;10.874;2022-08-25T04:18:17;100716.28;;;25.18;51.08
46690;BME280;32423;45.398;10.874;2022-08-25T04:21:03;100720.09;;;25.31;51.32
46690;BME280;32423;45.398;10.874;2022-08-25T04:23:48;100720.03;;;25.38;51.71
46690;BME280;32423;45.398;10.874;2022-08-25T04:26:35;100723.16;;;25.44;50.84
46690;BME280;32423;45.398;10.874;2022-08-25T04:29:22;100723.16;;;25.40;51.52
46690;BME280;32423;45.398;10.874;2022-08-25T04:32:07;100714.78;;;25.44;51.12
46690;BME280;32423;45.398;10.874;2022-08-25T04:34:51;100722.03;;;25.38;51.52
46690;BME280;32423;45.398;10.874;2022-08-25T04:37:35;100711.56;;;25.45;51.09
46690;BME280;32423;45.398;10.874;2022-08-25T04:40:20;100717.13;;;25.45;51.34
46690;BME280;32423;45.398;10.874;2022-08-25T04:43:05;100717.13;;;25.45;51.10
46690;BME280;32423;45.398;10.874;2022-08-25T04:45:50;100719.13;;;25.48;50.96
46690;BME280;32423;45.398;10.874;2022-08-25T04:48:35;100723.03;;;25.54;51.02
46690;BME280;32423;45.398;10.874;2022-08-25T04:51:22;100728.03;;;25.33;50.32
46690;BME280;32423;45.398;10.874;2022-08-25T04:54:12;100728.34;;;25.04;51.25
46690;BME280;32423;45.398;10.874;2022-08-25T04:56:57;100730.91;;;24.85;51.75
46690;BME280;32423;45.398;10.874;2022-08-25T04:59:41;100723.38;;;24.82;52.77
46690;BME280;32423;45.398;10.874;2022-08-25T05:02:25;100729.88;;;24.68;52.95
46690;BME280;32423;45.398;10.874;2022-08-25T05:05:11;100726.75;;;24.62;53.39
46690;BME280;32423;45.398;10.874;2022-08-25T05:07:55;100727.94;;;24.61;53.19
46690;BME280;32423;45.398;10.874;2022-08-25T05:10:40;100727.81;;;24.76;52.88
46690;BME280;32423;45.398;10.874;2022-08-25T05:13:25;100728.19;;;24.78;52.63
46690;BME280;32423;45.398;10.874;2022-08-25T05:16:09;100732.28;;;24.66;52.74
46690;BME280;32423;45.398;10.874;2022-08-25T05:18:54;100737.34;;;24.78;52.33
46690;BME280;32423;45.398;10.874;2022-08-25T05:21:40;100741.22;;;24.91;52.06
46690;BME280;32423;45.398;10.874;2022-08-25T05:24:24;100731.16;;;25.01;52.20
46690;BME280;32423;45.398;10.874;2022-08-25T05:27:10;100733.25;;;24.90;52.85
46690;BME280;32423;45.398;10.874;2022-08-25T05:29:54;100732.47;;;24.86;52.67
46690;BME280;32423;45.398;10.874;2022-08-25T05:32:39;100722.19;;;24.83;53.50
46690;BME280;32423;45.398;10.874;2022-08-25T05:35:23;100734.16;;;24.76;53.88
46690;BME280;32423;45.398;10.874;2022-08-25T05:38:08;100723.00;;;24.80;53.82
46690;BME280;32423;45.398;10.874;2022-08-25T05:41:03;100726.16;;;24.82;53.53
46690;BME280;32423;45.398;10.874;2022-08-25T05:43:48;100724.53;;;24.84;53.77
46690;BME280;32423;45.398;10.874;2022-08-25T05:46:32;100724.13;;;24.86;54.15
46690;BME280;32423;45.398;10.874;2022-08-25T05:49:17;100727.38;;;24.81;54.50
46690;BME280;32423;45.398;10.874;2022-08-25T05:52:02;100726.09;;;24.92;53.67
46690;BME280;32423;45.398;10.874;2022-08-25T05:54:46;100723.66;;;24.98;53.71
46690;BME280;32423;45.398;10.874;2022-08-25T05:57:31;100718.50;;;24.96;54.45
46690;BME280;32423;45.398;10.874;2022-08-25T06:00:16;100720.38;;;25.06;53.86
46690;BME280;32423;45.398;10.874;2022-08-25T06:03:01;100716.41;;;25.07;54.03
46690;BME280;32423;45.398;10.874;2022-08-25T06:05:45;100716.34;;;25.11;53.37
46690;BME280;32423;45.398;10.874;2022-08-25T06:08:30;100718.69;;;25.16;53.50
46690;BME280;32423;45.398;10.874;2022-08-25T06:11:17;100715.72;;;25.30;53.25
46690;BME280;32423;45.398;10.874;2022-08-25T06:14:02;100712.09;;;25.37;53.57
46690;BME280;32423;45.398;10.874;2022-08-25T06:16:47;100704.81;;;25.46;52.87
46690;BME280;32423;45.398;10.874;2022-08-25T06:19:34;100710.28;;;25.57;53.77
46690;BME280;32423;45.398;10.874;2022-08-25T06:22:19;100705.41;;;25.65;53.28
46690;BME280;32423;45.398;10.874;2022-08-25T06:25:05;100706.50;;;25.71;53.97
46690;BME280;32423;45.398;10.874;2022-08-25T06:27:50;100706.94;;;25.69;53.43
46690;BME280;32423;45.398;10.874;2022-08-25T06:30:34;100702.50;;;25.72;53.37
46690;BME280;32423;45.398;10.874;2022-08-25T06:33:19;100707.63;;;25.77;52.83
46690;BME280;32423;45.398;10.874;2022-08-25T06:36:04;100702.00;;;25.80;53.35
46690;BME280;32423;45.398;10.874;2022-08-25T06:38:48;100704.00;;;25.80;53.38
46690;BME280;32423;45.398;10.874;2022-08-25T06:41:33;100697.97;;;25.85;52.14
46690;BME280;32423;45.398;10.874;2022-08-25T06:44:20;100701.00;;;25.94;51.74
46690;BME280;32423;45.398;10.874;2022-08-25T06:47:05;100699.03;;;25.94;52.32
46690;BME280;32423;45.398;10.874;2022-08-25T06:49:50;100700.53;;;25.99;51.81
46690;BME280;32423;45.398;10.874;2022-08-25T06:52:35;100703.66;;;26.05;51.67
46690;BME280;32423;45.398;10.874;2022-08-25T06:55:20;100695.69;;;26.03;51.65
46690;BME280;32423;45.398;10.874;2022-08-25T06:58:05;100692.84;;;26.07;51.12
46690;BME280;32423;45.398;10.874;2022-08-25T07:00:50;100693.28;;;26.05;51.38
46690;BME280;32423;45.398;10.874;2022-08-25T07:03:34;100693.97;;;26.13;50.40
46690;BME280;32423;45.398;10.874;2022-08-25T07:06:19;100693.41;;;26.21;50.44
46690;BME280;32423;45.398;10.874;2022-08-25T07:09:04;100687.03;;;26.24;50.41
46690;BME280;32423;45.398;10.874;2022-08-25T07:11:49;100695.03;;;26.22;50.34
46690;BME280;32423;45.398;10.874;2022-08-25T07:14:33;100696.63;;;26.23;50.36
46690;BME280;32423;45.398;10.874;2022-08-25T07:17:20;100688.19;;;26.27;50.03
46690;BME280;32423;45.398;10.874;2022-08-25T07:20:05;100688.81;;;26.38;49.88
46690;BME280;32423;45.398;10.874;2022-08-25T07:22:49;100684.50;;;26.57;49.13
46690;BME280;32423;45.398;10.874;2022-08-25T07:25:34;100682.75;;;26.66;48.87
46690;BME280;32423;45.398;10.874;2022-08-25T07:28:20;100689.84;;;26.71;49.00
46690;BME280;32423;45.398;10.874;2022-08-25T07:31:05;100685.31;;;26.77;49.32
46690;BME280;32423;45.398;10.874;2022-08-25T07:33:50;100679.63;;;26.84;48.51
46690;BME280;32423;45.398;10.874;2022-08-25T07:37:13;100676.41;;;26.86;48.39
46690;BME280;32423;45.398;10.874;2022-08-25T07:40:00;100677.56;;;26.88;48.43
46690;BME280;32423;45.398;10.874;2022-08-25T07:42:45;100677.94;;;26.90;48.11
46690;BME280;32423;45.398;10.874;2022-08-25T07:45:32;100674.22;;;26.73;48.89
46690;BME280;32423;45.398;10.874;2022-08-25T07:48:17;100679.09;;;26.69;49.15
46690;BME280;32423;45.398;10.874;2022-08-25T07:51:08;100682.78;;;26.86;48.56
46690;BME280;32423;45.398;10.874;2022-08-25T07:53:53;100684.66;;;26.93;48.12
46690;BME280;32423;45.398;10.874;2022-08-25T07:56:38;100676.78;;;27.07;48.11
46690;BME280;32423;45.398;10.874;2022-08-25T07:59:24;100679.88;;;27.13;47.61
46690;BME280;32423;45.398;10.874;2022-08-25T08:02:09;100684.69;;;27.12;47.79
46690;BME280;32423;45.398;10.874;2022-08-25T08:04:54;100685.34;;;27.20;47.56
46690;BME280;32423;45.398;10.874;2022-08-25T08:07:39;100681.63;;;27.27;47.35
46690;BME280;32423;45.398;10.874;2022-08-25T08:10:24;100687.53;;;27.29;47.45
46690;BME280;32423;45.398;10.874;2022-08-25T08:13:09;100682.63;;;27.16;47.51
46690;BME280;32423;45.398;10.874;2022-08-25T08:15:54;100680.66;;;27.13;47.42
46690;BME280;32423;45.398;10.874;2022-08-25T08:18:39;100683.72;;;27.22;47.47
46690;BME280;32423;45.398;10.874;2022-08-25T08:21:26;100683.97;;;27.28;46.93
46690;BME280;32423;45.398;10.874;2022-08-25T08:24:12;100687.63;;;27.25;46.98
46690;BME280;32423;45.398;10.874;2022-08-25T08:26:57;100685.03;;;27.14;47.60
46690;BME280;32423;45.398;10.874;2022-08-25T08:29:41;100685.41;;;27.16;47.68
46690;BME280;32423;45.398;10.874;2022-08-25T08:32:27;100686.56;;;27.19;47.33
46690;BME280;32423;45.398;10.874;2022-08-25T08:35:11;100683.25;;;27.04;47.76
46690;BME280;32423;45.398;10.874;2022-08-25T08:37:56;100683.38;;;26.97;48.00
46690;BME280;32423;45.398;10.874;2022-08-25T08:40:44;100675.81;;;27.17;47.41
46690;BME280;32423;45.398;10.874;2022-08-25T08:43:53;100681.84;;;27.16;47.37
46690;BME280;32423;45.398;10.874;2022-08-25T08:46:45;100679.59;;;27.07;47.94
46690;BME280;32423;45.398;10.874;2022-08-25T08:52:43;100674.59;;;27.18;47.26
46690;BME280;32423;45.398;10.874;2022-08-25T08:55:36;100675.16;;;27.10;47.88
46690;BME280;32423;45.398;10.874;2022-08-25T08:58:36;100669.66;;;27.06;47.71
46690;BME280;32423;45.398;10.874;2022-08-25T09:01:26;100665.28;;;27.25;47.20
46690;BME280;32423;45.398;10.874;2022-08-25T09:06:56;100651.41;;;27.02;47.86
46690;BME280;32423;45.398;10.874;2022-08-25T09:09:43;100649.47;;;26.99;48.16
46690;BME280;32423;45.398;10.874;2022-08-25T09:12:36;100658.50;;;27.26;47.05
46690;BME280;32423;45.398;10.874;2022-08-25T09:18:50;100647.97;;;27.14;47.76
46690;BME280;32423;45.398;10.874;2022-08-25T09:21:42;100641.25;;;27.11;47.43
46690;BME280;32423;45.398;10.874;2022-08-25T09:24:41;100636.59;;;27.05;47.73
46690;BME280;32423;45.398;10.874;2022-08-25T09:30:18;100639.25;;;27.12;47.83
46690;BME280;32423;45.398;10.874;2022-08-25T09:33:03;100638.88;;;27.10;47.65
46690;BME280;32423;45.398;10.874;2022-08-25T09:35:48;100643.97;;;27.15;47.12
46690;BME280;32423;45.398;10.874;2022-08-25T09:38:33;100643.25;;;27.11;47.17
46690;BME280;32423;45.398;10.874;2022-08-25T09:41:33;100639.47;;;27.01;47.31
46690;BME280;32423;45.398;10.874;2022-08-25T09:44:26;100645.75;;;27.05;47.62
46690;BME280;32423;45.398;10.874;2022-08-25T09:50:02;100627.97;;;27.35;46.67
46690;BME280;32423;45.398;10.874;2022-08-25T09:52:47;100624.59;;;27.44;46.52
46690;BME280;32423;45.398;10.874;2022-08-25T09:55:31;100623.06;;;27.59;46.06
46690;BME280;32423;45.398;10.874;2022-08-25T09:58:18;100627.03;;;27.42;46.29
46690;BME280;32423;45.398;10.874;2022-08-25T10:01:11;100629.78;;;27.26;46.72
46690;BME280;32423;45.398;10.874;2022-08-25T10:03:57;100633.22;;;27.13;47.33
46690;BME280;32423;45.398;10.874;2022-08-25T10:06:46;100622.75;;;27.17;46.91
46690;BME280;32423;45.398;10.874;2022-08-25T10:09:32;100613.09;;;27.22;46.80
46690;BME280;32423;45.398;10.874;2022-08-25T10:12:19;100615.50;;;27.40;45.79
46690;BME280;32423;45.398;10.874;2022-08-25T10:15:15;100612.50;;;27.31;46.45
46690;BME280;32423;45.398;10.874;2022-08-25T10:18:15;100617.53;;;27.19;46.61
46690;BME280;32423;45.398;10.874;2022-08-25T10:21:04;100614.38;;;27.17;46.76
46690;BME280;32423;45.398;10.874;2022-08-25T10:23:52;100613.03;;;27.26;46.97
46690;BME280;32423;45.398;10.874;2022-08-25T10:35:14;100609.66;;;27.14;46.96
46690;BME280;32423;45.398;10.874;2022-08-25T10:44:01;100598.03;;;27.36;46.23
46690;BME280;32423;45.398;10.874;2022-08-25T10:46:52;100601.47;;;27.23;46.35
46690;BME280;32423;45.398;10.874;2022-08-25T10:49:44;100591.09;;;27.24;46.23
46690;BME280;32423;45.398;10.874;2022-08-25T10:55:19;100588.69;;;27.26;46.58
46690;BME280;32423;45.398;10.874;2022-08-25T10:58:15;100581.38;;;27.32;46.15
46690;BME280;32423;45.398;10.874;2022-08-25T11:01:06;100576.16;;;27.14;47.60
46690;BME280;32423;45.398;10.874;2022-08-25T11:03:57;100576.81;;;27.22;47.48
46690;BME280;32423;45.398;10.874;2022-08-25T11:06:48;100577.38;;;27.13;47.32
46690;BME280;32423;45.398;10.874;2022-08-25T11:09:37;100571.44;;;27.11;47.06
46690;BME280;32423;45.398;10.874;2022-08-25T11:12:30;100573.38;;;27.14;47.38
46690;BME280;32423;45.398;10.874;2022-08-25T11:15:18;100567.28;;;27.19;47.66
46690;BME280;32423;45.398;10.874;2022-08-25T11:18:10;100569.22;;;27.22;46.94
46690;BME280;32423;45.398;10.874;2022-08-25T11:21:09;100558.47;;;27.21;46.88
46690;BME280;32423;45.398;10.874;2022-08-25T11:24:06;100559.31;;;27.18;47.26
46690;BME280;32423;45.398;10.874;2022-08-25T11:26:54;100556.94;;;27.36;46.78
46690;BME280;32423;45.398;10.874;2022-08-25T11:29:39;100555.06;;;27.98;44.72
46690;BME280;32423;45.398;10.874;2022-08-25T11:32:25;100543.91;;;27.82;45.46
46690;BME280;32423;45.398;10.874;2022-08-25T11:35:11;100546.94;;;27.71;45.71
46690;BME280;32423;45.398;10.874;2022-08-25T11:49:49;100534.69;;;27.33;46.60
46690;BME280;32423;45.398;10.874;2022-08-25T11:52:45;100529.53;;;27.47;46.51
46690;BME280;32423;45.398;10.874;2022-08-25T11:58:23;100528.97;;;27.88;45.09
46690;BME280;32423;45.398;10.874;2022-08-25T12:04:16;100517.66;;;28.53;43.14
46690;BME280;32423;45.398;10.874;2022-08-25T12:07:17;100520.50;;;28.37;43.99
46690;BME280;32423;45.398;10.874;2022-08-25T12:21:13;100517.00;;;27.55;45.85
46690;BME280;32423;45.398;10.874;2022-08-25T12:26:57;100515.84;;;27.69;45.58
46690;BME280;32423;45.398;10.874;2022-08-25T12:29:46;100512.53;;;27.74;45.35
46690;BME280;32423;45.398;10.874;2022-08-25T12:35:37;100516.63;;;28.18;43.94
46690;BME280;32423;45.398;10.874;2022-08-25T12:38:35;100505.50;;;28.15;44.29
46690;BME280;32423;45.398;10.874;2022-08-25T12:41:22;100497.69;;;28.38;43.07
46690;BME280;32423;45.398;10.874;2022-08-25T12:44:10;100500.72;;;28.44;43.61
46690;BME280;32423;45.398;10.874;2022-08-25T12:53:43;100506.03;;;28.09;44.08
46690;BME280;32423;45.398;10.874;2022-08-25T12:56:43;100499.38;;;28.20;43.71
46690;BME280;32423;45.398;10.874;2022-08-25T12:59:37;100494.94;;;28.22;43.73
46690;BME280;32423;45.398;10.874;2022-08-25T13:14:16;100484.00;;;28.69;42.28
46690;BME280;32423;45.398;10.874;2022-08-25T13:17:02;100483.94;;;28.85;41.40
46690;BME280;32423;45.398;10.874;2022-08-25T13:19:46;100482.75;;;28.99;41.43
46690;BME280;32423;45.398;10.874;2022-08-25T13:22:30;100490.72;;;28.59;42.74
46690;BME280;32423;45.398;10.874;2022-08-25T13:25:20;100485.50;;;28.86;41.96
46690;BME280;32423;45.398;10.874;2022-08-25T13:28:05;100475.22;;;28.96;41.40
46690;BME280;32423;45.398;10.874;2022-08-25T13:31:13;100471.94;;;28.72;42.02
46690;BME280;32423;45.398;10.874;2022-08-25T13:34:01;100480.19;;;28.34;43.48
46690;BME280;32423;45.398;10.874;2022-08-25T13:36:47;100473.91;;;28.30;42.98
46690;BME280;32423;45.398;10.874;2022-08-25T13:40:05;100466.88;;;28.67;42.36
46690;BME280;32423;45.398;10.874;2022-08-25T13:42:51;100469.47;;;28.33;43.33
46690;BME280;32423;45.398;10.874;2022-08-25T13:45:45;100471.72;;;28.38;43.37
46690;BME280;32423;45.398;10.874;2022-08-25T13:48:39;100467.41;;;28.21;43.77
46690;BME280;32423;45.398;10.874;2022-08-25T13:51:25;100458.34;;;28.17;43.82
46690;BME280;32423;45.398;10.874;2022-08-25T13:54:20;100458.28;;;28.33;43.72
46690;BME280;32423;45.398;10.874;2022-08-25T13:59:53;100447.97;;;28.30;43.60
46690;BME280;32423;45.398;10.874;2022-08-25T14:02:49;100448.75;;;28.30;43.47
46690;BME280;32423;45.398;10.874;2022-08-25T14:05:38;100439.50;;;28.46;42.90
46690;BME280;32423;45.398;10.874;2022-08-25T14:08:28;100444.16;;;28.24;43.88
46690;BME280;32423;45.398;10.874;2022-08-25T14:11:22;100444.84;;;28.28;43.25
46690;BME280;32423;45.398;10.874;2022-08-25T14:17:08;100444.88;;;28.95;41.42
46690;BME280;32423;45.398;10.874;2022-08-25T14:19:53;100441.75;;;28.80;42.12
46690;BME280;32423;45.398;10.874;2022-08-25T14:22:38;100447.22;;;28.42;43.35
46690;BME280;32423;45.398;10.874;2022-08-25T14:25:23;100446.31;;;28.45;42.38
46690;BME280;32423;45.398;10.874;2022-08-25T14:28:12;100444.53;;;28.38;42.89
46690;BME280;32423;45.398;10.874;2022-08-25T14:30:58;100436.94;;;28.39;42.77
46690;BME280;32423;45.398;10.874;2022-08-25T14:33:50;100444.22;;;28.49;42.25
46690;BME280;32423;45.398;10.874;2022-08-25T14:36:35;100442.19;;;28.37;43.06
46690;BME280;32423;45.398;10.874;2022-08-25T14:39:20;100440.94;;;28.38;42.25
46690;BME280;32423;45.398;10.874;2022-08-25T14:42:05;100436.91;;;28.80;41.39
46690;BME280;32423;45.398;10.874;2022-08-25T14:44:50;100430.47;;;28.55;42.11
46690;BME280;32423;45.398;10.874;2022-08-25T14:47:34;100425.34;;;28.24;42.49
46690;BME280;32423;45.398;10.874;2022-08-25T14:50:19;100430.00;;;28.15;43.43
46690;BME280;32423;45.398;10.874;2022-08-25T14:53:03;100428.59;;;28.23;43.18
46690;BME280;32423;45.398;10.874;2022-08-25T14:55:48;100428.78;;;28.16;43.20
46690;BME280;32423;45.398;10.874;2022-08-25T14:58:37;100423.13;;;28.32;42.38
46690;BME280;32423;45.398;10.874;2022-08-25T15:01:22;100425.81;;;28.23;42.82
46690;BME280;32423;45.398;10.874;2022-08-25T15:04:09;100430.88;;;28.40;42.03
46690;BME280;32423;45.398;10.874;2022-08-25T15:06:57;100428.44;;;28.55;42.31
46690;BME280;32423;45.398;10.874;2022-08-25T15:09:45;100418.91;;;28.40;42.72
46690;BME280;32423;45.398;10.874;2022-08-25T15:12:29;100425.88;;;28.19;43.23
46690;BME280;32423;45.398;10.874;2022-08-25T15:15:15;100419.44;;;28.35;43.00
46690;BME280;32423;45.398;10.874;2022-08-25T15:18:00;100416.03;;;28.56;42.13
46690;BME280;32423;45.398;10.874;2022-08-25T15:20:44;100407.34;;;28.92;40.61
46690;BME280;32423;45.398;10.874;2022-08-25T15:23:28;100409.59;;;28.84;40.89
46690;BME280;32423;45.398;10.874;2022-08-25T15:26:13;100402.31;;;28.74;41.58
46690;BME280;32423;45.398;10.874;2022-08-25T15:28:58;100403.84;;;28.63;42.46
46690;BME280;32423;45.398;10.874;2022-08-25T15:31:46;100405.69;;;28.40;42.53
46690;BME280;32423;45.398;10.874;2022-08-25T15:34:30;100393.72;;;28.27;42.80
46690;BME280;32423;45.398;10.874;2022-08-25T15:37:18;100399.13;;;28.47;42.45
46690;BME280;32423;45.398;10.874;2022-08-25T15:40:03;100398.00;;;28.57;41.51
46690;BME280;32423;45.398;10.874;2022-08-25T15:42:48;100402.84;;;28.69;41.52
46690;BME280;32423;45.398;10.874;2022-08-25T15:45:33;100391.75;;;28.53;41.49
46690;BME280;32423;45.398;10.874;2022-08-25T15:48:19;100395.97;;;28.45;42.33
46690;BME280;32423;45.398;10.874;2022-08-25T15:51:03;100387.88;;;28.22;42.78
46690;BME280;32423;45.398;10.874;2022-08-25T15:53:48;100383.94;;;28.19;42.59